EGLL Airport Information

Runway Information
Runway 09L Length 12799 ft width 164 ft
Elevation 79 ft Threshold 1007 ft Heading 90
Runway 27R Length 12799 ft Width 164 ft
Elevation 78 ft Threshold 0 ft Heading 270
Runway 09R Length 12001 ft width 148 ft
Elevation 75 ft Threshold 1013 ft Heading 90
Runway 27L Length 12001 ft Width 148 ft
Elevation 77 ft Threshold 0 ft Heading 270
Airport Frequencies
Type APP Name APP Frequency 119.725 MHZ
Type ATIS Name ATIS Frequency 128.075 MHZ
Type CLD Name CLNC DEL Frequency 121.975 MHZ
Type GND Name GND Frequency 121.7 MHZ
Type TWR Name TWR Frequency 118.475 MHZ
Airport Navaids
Type VOR-DME Name London Frequency 113600 KHZ
Airport Weather Information & NOTAM
ADDS - METARS form results

(0626 UTC 20 April 2018)
Data provider http://aviationweather.gov/adds/metars/
 
METAR text: EGLL 200620Z AUTO 27005KT 9999 NCD 13/11 Q1023 NOSIG
Conditions at: EGLL (LONDON/HEATHROW , GB) observed 0620 UTC 20 April 2018
Temperature: 13.0°C (55°F)
Dewpoint: 11.0°C (52°F) [RH = 88%]
Pressure (altimeter): 30.21 inches Hg (1023.0 mb)
Winds: from the W (270 degrees) at 6 MPH (5 knots; 2.6 m/s)
Visibility: 6 or more miles (10+ km)
Ceiling: at least 12,000 feet AGL
Clouds: sky clear below 12,000 feet AGL
Weather: no significant weather observed at this time

METAR text: EGLL 200550Z AUTO 30005KT 9999 NCD 13/11 Q1023 NOSIG
Conditions at: EGLL (LONDON/HEATHROW , GB) observed 0550 UTC 20 April 2018
Temperature: 13.0°C (55°F)
Dewpoint: 11.0°C (52°F) [RH = 88%]
Pressure (altimeter): 30.21 inches Hg (1023.0 mb)
Winds: from the WNW (300 degrees) at 6 MPH (5 knots; 2.6 m/s)
Visibility: 6 or more miles (10+ km)
Ceiling: at least 12,000 feet AGL
Clouds: sky clear below 12,000 feet AGL
Weather: no significant weather observed at this time

Forecast for: EGLL (LONDON/HEATHROW , GB)
Text: TAF EGLL 200453Z 2006/2112 31004KT CAVOK
Forecast period: 0600 UTC 20 April 2018 to 0200 UTC 21 April 2018
Forecast type: FROM: standard forecast or significant change
Winds: from the NW (310 degrees) at 5 MPH (4 knots; 2.1 m/s)
Visibility: 6 or more miles (10+ km)
Clouds: not forecast
Weather: NSW  (no significant weather)
Forecast for: EGLL (LONDON/HEATHROW , GB)
Text: TAF EGLL 200453Z 2006/2112 31004KT CAVOK
Forecast period: 0600 UTC 20 April 2018 to 0200 UTC 21 April 2018
Forecast type: FROM: standard forecast or significant change
Winds: from the NW (310 degrees) at 5 MPH (4 knots; 2.1 m/s)
Visibility: 6 or more miles (10+ km)
Clouds: not forecast
Weather: NSW  (no significant weather)
Forecast for: EGLL (LONDON/HEATHROW , GB)
Text: TAF EGLL 200453Z 2006/2112 31004KT CAVOK
Forecast period: 0200 to 0700 UTC 21 April 2018
Forecast type: BECOMING: Conditions expected to become as follows by 0500 UTC 21 April 2018
Winds: from the E (80 degrees) at 12 MPH (10 knots; 5.2 m/s)
Visibility: 4 miles (6 km)
Weather: NSW  (no significant weather)
Forecast for: EGLL (LONDON/HEATHROW , GB)
Text: TAF EGLL 200453Z 2006/2112 31004KT CAVOK
Forecast period: 0200 to 0700 UTC 21 April 2018
Forecast type: BECOMING: Conditions expected to become as follows by 0500 UTC 21 April 2018
Winds: from the E (80 degrees) at 12 MPH (10 knots; 5.2 m/s)
Visibility: 4 miles (6 km)
Weather: NSW  (no significant weather)
Forecast for: EGLL (LONDON/HEATHROW , GB)
Text: TAF EGLL 200453Z 2006/2112 31004KT CAVOK
Forecast period: 0700 to 1200 UTC 21 April 2018
Forecast type: BECOMING: Conditions expected to become as follows by 1000 UTC 21 April 2018
Winds: from the E (80 degrees) at 12 MPH (10 knots; 5.2 m/s)
Visibility: 6 or more miles (10+ km)
Weather: NSW  (no significant weather)
Forecast for: EGLL (LONDON/HEATHROW , GB)
Text: TAF EGLL 200453Z 2006/2112 31004KT CAVOK
Forecast period: 0700 to 1200 UTC 21 April 2018
Forecast type: BECOMING: Conditions expected to become as follows by 1000 UTC 21 April 2018
Winds: from the E (80 degrees) at 12 MPH (10 knots; 5.2 m/s)
Visibility: 6 or more miles (10+ km)
Weather: NSW  (no significant weather)